Time;durP1;ratioP1;P1;durP2;ratioP2;P2;SDS_P1;SDS_P2;PMS_P1;PMS_P2;Temp;Humidity;BMP_temperature;BMP_pressure;BME280_temperature;BME280_humidity;BME280_pressure;Samples;Min_cycle;Max_cycle;Signal;HPM_P1;HPM_P2
2023/03/14 00:02:04;;;;;;;0.50;0.50;;;;;;;;;;4984800;28;20576;-84
2023/03/14 00:04:30;;;;;;;0.60;0.60;;;;;;;;;;4985593;28;20282;-86
2023/03/14 00:06:56;;;;;;;0.70;0.70;;;;;;;;;;4985777;28;20173;-85
2023/03/14 00:09:22;;;;;;;0.60;0.60;;;;;;;;;;4986535;28;20246;-85
2023/03/14 00:11:48;;;;;;;0.50;0.50;;;;;;;;;;4986868;28;20197;-83
2023/03/14 00:14:15;;;;;;;0.60;0.60;;;;;;;;;;4996605;28;20204;-82
2023/03/14 00:16:41;;;;;;;0.60;0.60;;;;;;;;;;4990462;28;20178;-85
2023/03/14 00:19:08;;;;;;;0.53;0.53;;;;;;;;;;4980785;28;20170;-85
2023/03/14 00:21:34;;;;;;;0.50;0.50;;;;;;;;;;4980492;28;20189;-84
2023/03/14 00:24:00;;;;;;;0.70;0.70;;;;;;;;;;4978514;28;20666;-84
2023/03/14 00:26:26;;;;;;;0.53;0.53;;;;;;;;;;4978623;28;20404;-85
2023/03/14 00:28:53;;;;;;;0.60;0.60;;;;;;;;;;4980055;28;20194;-83
2023/03/14 00:31:18;;;;;;;0.60;0.60;;;;;;;;;;4978603;28;20178;-83
2023/03/14 00:33:45;;;;;;;0.50;0.50;;;;;;;;;;4978698;28;20606;-83
2023/03/14 00:36:12;;;;;;;0.50;0.50;;;;;;;;;;4979499;28;20182;-84
2023/03/14 00:38:39;;;;;;;0.60;0.60;;;;;;;;;;4978687;28;20189;-84
2023/03/14 00:41:07;;;;;;;0.50;0.50;;;;;;;;;;4976005;28;20559;-84
2023/03/14 00:43:33;;;;;;;0.60;0.60;;;;;;;;;;4977563;28;20283;-84
2023/03/14 00:45:59;;;;;;;0.50;0.50;;;;;;;;;;4978621;28;20174;-84
2023/03/14 00:48:24;;;;;;;0.50;0.50;;;;;;;;;;4978763;28;20178;-83
2023/03/14 00:50:50;;;;;;;0.60;0.60;;;;;;;;;;4976379;28;20273;-83
2023/03/14 00:53:17;;;;;;;0.60;0.60;;;;;;;;;;4977392;28;20190;-83
2023/03/14 00:55:43;;;;;;;0.60;0.60;;;;;;;;;;4980924;28;20269;-84
2023/03/14 00:58:10;;;;;;;0.60;0.60;;;;;;;;;;4981673;28;20182;-85
2023/03/14 01:00:36;;;;;;;0.60;0.60;;;;;;;;;;4980763;28;20178;-83
2023/03/14 01:03:02;;;;;;;0.60;0.60;;;;;;;;;;4979945;28;20242;-84
2023/03/14 01:05:29;;;;;;;0.60;0.60;;;;;;;;;;4982510;28;20201;-85
2023/03/14 01:07:55;;;;;;;0.60;0.60;;;;;;;;;;4993333;28;20247;-83
2023/03/14 01:10:21;;;;;;;0.50;0.50;;;;;;;;;;5000333;28;20233;-84
2023/03/14 01:12:46;;;;;;;0.70;0.70;;;;;;;;;;4994192;28;20297;-86
2023/03/14 01:15:12;;;;;;;0.67;0.67;;;;;;;;;;4983557;28;20294;-84
2023/03/14 01:17:39;;;;;;;0.60;0.60;;;;;;;;;;4983245;28;20209;-85
2023/03/14 01:20:08;;;;;;;0.70;0.70;;;;;;;;;;4983555;28;20309;-83
2023/03/14 01:22:34;;;;;;;0.50;0.50;;;;;;;;;;4983841;28;20325;-85
2023/03/14 01:25:00;;;;;;;0.60;0.60;;;;;;;;;;4984663;28;20657;-85
2023/03/14 01:27:26;;;;;;;0.60;0.60;;;;;;;;;;4985519;28;20201;-84
2023/03/14 01:29:52;;;;;;;0.63;0.63;;;;;;;;;;4981577;28;20174;-84
2023/03/14 01:32:18;;;;;;;0.60;0.60;;;;;;;;;;4979793;28;20189;-85
2023/03/14 01:34:44;;;;;;;0.60;0.60;;;;;;;;;;4981485;28;20194;-83
2023/03/14 01:37:11;;;;;;;0.70;0.70;;;;;;;;;;4979456;28;20193;-84
2023/03/14 01:39:37;;;;;;;0.63;0.63;;;;;;;;;;4979003;28;20178;-84
2023/03/14 01:42:03;;;;;;;0.50;0.50;;;;;;;;;;4978382;28;20241;-84
2023/03/14 01:44:46;;;;;;;0.60;0.60;;;;;;;;;;4978804;28;20201;-83
2023/03/14 01:47:12;;;;;;;0.60;0.60;;;;;;;;;;4979235;28;20180;-85
2023/03/14 01:49:38;;;;;;;0.50;0.50;;;;;;;;;;4979896;28;20182;-85
2023/03/14 01:52:06;;;;;;;0.70;0.70;;;;;;;;;;4979734;28;20174;-84
2023/03/14 01:54:32;;;;;;;0.60;0.60;;;;;;;;;;4982933;28;20173;-83
2023/03/14 01:57:04;;;;;;;0.60;0.60;;;;;;;;;;4999501;28;20162;-82
2023/03/14 01:59:32;;;;;;;0.70;0.70;;;;;;;;;;4999638;28;20174;-85
2023/03/14 02:01:59;;;;;;;0.60;0.60;;;;;;;;;;4999230;28;20216;-84
2023/03/14 02:04:28;;;;;;;0.60;0.60;;;;;;;;;;4998624;28;20189;-83
2023/03/14 02:07:10;;;;;;;0.60;0.60;;;;;;;;;;4997843;28;20174;-82
2023/03/14 02:09:38;;;;;;;0.60;0.60;;;;;;;;;;4998985;28;20262;-83
2023/03/14 02:12:05;;;;;;;0.63;0.63;;;;;;;;;;4992444;28;20244;-84
2023/03/14 02:17:17;;;;;;;0.70;0.70;;;;;;;;;;5033068;23;20236;-82
2023/03/14 02:19:49;;;;;;;0.77;0.77;;;;;;;;;;5017601;28;20254;-83
2023/03/14 02:22:16;;;;;;;0.60;0.60;;;;;;;;;;5016212;28;20240;-82
2023/03/14 02:24:42;;;;;;;0.60;0.60;;;;;;;;;;4997398;28;20181;-83
2023/03/14 02:27:12;;;;;;;0.70;0.70;;;;;;;;;;4998104;28;20185;-83
2023/03/14 02:29:41;;;;;;;0.60;0.60;;;;;;;;;;4997904;28;20718;-82
2023/03/14 02:32:07;;;;;;;0.63;0.63;;;;;;;;;;4997393;28;20706;-81
2023/03/14 02:34:34;;;;;;;0.70;0.70;;;;;;;;;;4997360;28;20189;-81
2023/03/14 02:37:01;;;;;;;0.50;0.50;;;;;;;;;;4997878;28;20196;-82
2023/03/14 02:39:47;;;;;;;0.60;0.60;;;;;;;;;;4997556;28;20181;-81
2023/03/14 02:42:14;;;;;;;0.70;0.70;;;;;;;;;;4996725;28;20221;-81
2023/03/14 02:44:51;;;;;;;0.60;0.60;;;;;;;;;;4997148;28;20304;-81
2023/03/14 02:47:16;;;;;;;0.60;0.60;;;;;;;;;;4997429;28;20181;-81
2023/03/14 02:49:43;;;;;;;0.60;0.60;;;;;;;;;;4998564;28;20407;-82
2023/03/14 02:52:09;;;;;;;0.70;0.70;;;;;;;;;;4998202;28;20281;-82
2023/03/14 02:54:35;;;;;;;0.67;0.67;;;;;;;;;;5000282;28;20253;-80
2023/03/14 02:57:01;;;;;;;0.60;0.60;;;;;;;;;;5008569;28;20276;-79
2023/03/14 02:59:26;;;;;;;0.60;0.60;;;;;;;;;;5010226;28;20181;-79
2023/03/14 03:01:52;;;;;;;0.50;0.50;;;;;;;;;;5009503;28;20208;-80
2023/03/14 03:04:18;;;;;;;0.60;0.60;;;;;;;;;;5004238;28;20672;-81
2023/03/14 03:06:44;;;;;;;0.70;0.70;;;;;;;;;;4996742;28;20610;-81
2023/03/14 03:09:10;;;;;;;0.70;0.70;;;;;;;;;;4996716;28;20185;-80
2023/03/14 03:11:36;;;;;;;0.60;0.60;;;;;;;;;;4997083;28;20181;-80
2023/03/14 03:14:02;;;;;;;0.70;0.70;;;;;;;;;;4996142;28;20197;-81
2023/03/14 03:16:28;;;;;;;0.60;0.60;;;;;;;;;;4996552;28;20574;-81
2023/03/14 03:18:54;;;;;;;0.60;0.60;;;;;;;;;;4996519;28;20192;-81
2023/03/14 03:21:23;;;;;;;0.53;0.53;;;;;;;;;;4996468;28;20232;-82
2023/03/14 03:23:49;;;;;;;0.60;0.60;;;;;;;;;;4995642;28;20220;-81
2023/03/14 03:26:15;;;;;;;0.50;0.50;;;;;;;;;;4996873;28;20177;-81
2023/03/14 03:28:41;;;;;;;0.70;0.70;;;;;;;;;;4996395;28;20187;-81
2023/03/14 03:31:07;;;;;;;0.60;0.60;;;;;;;;;;4996423;28;20360;-80
2023/03/14 03:33:33;;;;;;;0.60;0.60;;;;;;;;;;4995861;28;20235;-81
2023/03/14 03:35:59;;;;;;;0.70;0.70;;;;;;;;;;4996122;28;20549;-81
2023/03/14 03:38:25;;;;;;;0.60;0.60;;;;;;;;;;4996107;28;20200;-82
2023/03/14 03:40:51;;;;;;;0.60;0.60;;;;;;;;;;4996519;28;20178;-81
2023/03/14 03:43:18;;;;;;;0.67;0.67;;;;;;;;;;4995198;28;20235;-81
2023/03/14 03:45:44;;;;;;;0.60;0.60;;;;;;;;;;4996243;28;20208;-81
2023/03/14 03:48:10;;;;;;;0.60;0.60;;;;;;;;;;4996013;28;20185;-81
2023/03/14 03:50:36;;;;;;;0.70;0.70;;;;;;;;;;4997103;28;20267;-80
2023/03/14 03:53:02;;;;;;;0.60;0.60;;;;;;;;;;4995750;28;20247;-85
2023/03/14 03:55:28;;;;;;;0.67;0.67;;;;;;;;;;4995354;28;20235;-81
2023/03/14 03:57:54;;;;;;;0.60;0.60;;;;;;;;;;4995797;28;20181;-82
2023/03/14 04:00:20;;;;;;;0.60;0.60;;;;;;;;;;4995773;28;20192;-81
2023/03/14 04:02:46;;;;;;;0.60;0.60;;;;;;;;;;4995856;28;20315;-82
2023/03/14 04:05:12;;;;;;;0.73;0.73;;;;;;;;;;4995794;28;20649;-81
2023/03/14 04:07:38;;;;;;;0.70;0.70;;;;;;;;;;4996151;28;20193;-82
2023/03/14 04:10:04;;;;;;;0.50;0.50;;;;;;;;;;4995815;28;20177;-80
2023/03/14 04:12:30;;;;;;;0.70;0.70;;;;;;;;;;4995536;28;20589;-82
2023/03/14 04:14:56;;;;;;;0.70;0.70;;;;;;;;;;4996184;28;20280;-81
2023/03/14 04:17:22;;;;;;;0.57;0.57;;;;;;;;;;4996175;28;20201;-81
2023/03/14 04:19:51;;;;;;;0.60;0.60;;;;;;;;;;4995848;28;20180;-83
2023/03/14 04:22:17;;;;;;;0.70;0.70;;;;;;;;;;4995667;28;20613;-81
2023/03/14 04:24:42;;;;;;;0.70;0.70;;;;;;;;;;4996012;28;20240;-81
2023/03/14 04:27:08;;;;;;;0.60;0.60;;;;;;;;;;4995854;28;20173;-82
2023/03/14 04:29:35;;;;;;;0.80;0.80;;;;;;;;;;4997416;28;20548;-81
2023/03/14 04:32:00;;;;;;;0.60;0.60;;;;;;;;;;4999332;28;20180;-82
2023/03/14 04:34:26;;;;;;;0.67;0.67;;;;;;;;;;4999271;28;20212;-82
2023/03/14 04:36:52;;;;;;;0.60;0.60;;;;;;;;;;5001248;28;20212;-80
2023/03/14 04:39:18;;;;;;;0.57;0.57;;;;;;;;;;5002752;28;20177;-80
2023/03/14 04:41:45;;;;;;;0.60;0.60;;;;;;;;;;5001658;28;20208;-82
2023/03/14 04:44:11;;;;;;;0.70;0.70;;;;;;;;;;4997453;28;20208;-80
2023/03/14 04:46:37;;;;;;;0.60;0.60;;;;;;;;;;4998372;28;20181;-82
2023/03/14 04:49:03;;;;;;;0.60;0.60;;;;;;;;;;4998890;28;20212;-82
2023/03/14 04:51:29;;;;;;;0.57;0.57;;;;;;;;;;4998758;28;20212;-81
2023/03/14 04:53:55;;;;;;;0.60;0.60;;;;;;;;;;4997801;28;20208;-81
2023/03/14 04:56:21;;;;;;;0.60;0.60;;;;;;;;;;4999078;28;20197;-81
2023/03/14 04:58:47;;;;;;;0.60;0.60;;;;;;;;;;4999206;28;20640;-81
2023/03/14 05:01:13;;;;;;;0.60;0.60;;;;;;;;;;4999472;28;20181;-81
2023/03/14 05:03:39;;;;;;;0.60;0.60;;;;;;;;;;4997819;28;20224;-82
2023/03/14 05:06:06;;;;;;;0.60;0.60;;;;;;;;;;4998485;28;20184;-82
2023/03/14 05:08:32;;;;;;;0.60;0.60;;;;;;;;;;4998925;28;20264;-81
2023/03/14 05:10:58;;;;;;;0.70;0.70;;;;;;;;;;4999387;28;20170;-82
2023/03/14 05:13:24;;;;;;;0.60;0.60;;;;;;;;;;5001930;28;20216;-82
2023/03/14 05:15:51;;;;;;;0.73;0.73;;;;;;;;;;5001984;28;20200;-82
2023/03/14 05:18:17;;;;;;;0.70;0.70;;;;;;;;;;5012568;28;20192;-80
2023/03/14 05:20:43;;;;;;;0.70;0.70;;;;;;;;;;5002775;28;20177;-81
2023/03/14 05:23:09;;;;;;;0.60;0.60;;;;;;;;;;4997634;28;20275;-81
2023/03/14 05:25:35;;;;;;;0.70;0.70;;;;;;;;;;4997905;28;20177;-81
2023/03/14 05:28:02;;;;;;;0.60;0.60;;;;;;;;;;4998336;28;20181;-82
2023/03/14 05:30:28;;;;;;;0.50;0.50;;;;;;;;;;4999350;28;20184;-82
2023/03/14 05:32:54;;;;;;;0.70;0.70;;;;;;;;;;4997375;28;20207;-81
2023/03/14 05:35:20;;;;;;;0.60;0.60;;;;;;;;;;4998999;28;20185;-82
2023/03/14 05:37:46;;;;;;;0.60;0.60;;;;;;;;;;4998649;28;20177;-82
2023/03/14 05:40:12;;;;;;;0.70;0.70;;;;;;;;;;4999126;28;20193;-82
2023/03/14 05:42:38;;;;;;;0.60;0.60;;;;;;;;;;4998306;28;20251;-83
2023/03/14 05:45:04;;;;;;;0.60;0.60;;;;;;;;;;4998761;28;20181;-81
2023/03/14 05:47:30;;;;;;;0.63;0.63;;;;;;;;;;4998042;28;20324;-82
2023/03/14 05:49:56;;;;;;;0.60;0.60;;;;;;;;;;4998925;28;20220;-81
2023/03/14 05:52:22;;;;;;;0.70;0.70;;;;;;;;;;4998292;28;20284;-82
2023/03/14 05:54:48;;;;;;;0.60;0.60;;;;;;;;;;5001510;28;20177;-79
2023/03/14 05:57:14;;;;;;;0.63;0.63;;;;;;;;;;5003382;28;20188;-81
2023/03/14 05:59:40;;;;;;;0.57;0.57;;;;;;;;;;5000943;28;20243;-80
2023/03/14 06:02:06;;;;;;;0.80;0.80;;;;;;;;;;5000592;28;20205;-83
2023/03/14 06:04:32;;;;;;;0.73;0.73;;;;;;;;;;5009142;28;20177;-80
2023/03/14 06:06:58;;;;;;;0.67;0.67;;;;;;;;;;5011486;28;20224;-82
2023/03/14 06:09:24;;;;;;;0.60;0.60;;;;;;;;;;5012097;28;20232;-81
2023/03/14 06:11:50;;;;;;;0.70;0.70;;;;;;;;;;5011115;28;20189;-79
2023/03/14 06:14:16;;;;;;;0.63;0.63;;;;;;;;;;5010349;28;20197;-81
2023/03/14 06:16:42;;;;;;;0.53;0.53;;;;;;;;;;4996576;28;20199;-81
2023/03/14 06:19:08;;;;;;;0.70;0.70;;;;;;;;;;4997826;28;20241;-81
2023/03/14 06:21:34;;;;;;;0.70;0.70;;;;;;;;;;4997880;28;20177;-80
2023/03/14 06:24:00;;;;;;;0.60;0.60;;;;;;;;;;4996294;28;20240;-81
2023/03/14 06:26:26;;;;;;;0.63;0.63;;;;;;;;;;5002957;28;20174;-81
2023/03/14 06:28:53;;;;;;;0.60;0.60;;;;;;;;;;5009411;28;20185;-80
2023/03/14 06:31:19;;;;;;;0.70;0.70;;;;;;;;;;5011459;28;20188;-80
2023/03/14 06:33:45;;;;;;;0.60;0.60;;;;;;;;;;4995629;28;20668;-82
2023/03/14 06:36:11;;;;;;;0.73;0.73;;;;;;;;;;4998765;28;20236;-81
2023/03/14 06:38:37;;;;;;;0.60;0.60;;;;;;;;;;4998020;28;20273;-81
2023/03/14 06:41:04;;;;;;;0.70;0.70;;;;;;;;;;4996354;28;20208;-82
2023/03/14 06:43:30;;;;;;;0.60;0.60;;;;;;;;;;4995564;28;20251;-80
2023/03/14 06:45:56;;;;;;;0.70;0.70;;;;;;;;;;4996288;28;20182;-82
2023/03/14 06:48:22;;;;;;;0.60;0.60;;;;;;;;;;4996873;28;20212;-81
2023/03/14 06:50:48;;;;;;;0.60;0.60;;;;;;;;;;4996938;28;20224;-80
2023/03/14 06:53:14;;;;;;;0.60;0.60;;;;;;;;;;4995540;28;20260;-81
2023/03/14 06:55:40;;;;;;;0.60;0.60;;;;;;;;;;4997594;28;20177;-81
2023/03/14 06:58:07;;;;;;;0.60;0.60;;;;;;;;;;4997026;28;20602;-80
2023/03/14 07:00:33;;;;;;;0.60;0.60;;;;;;;;;;4996579;28;20184;-81
2023/03/14 07:02:59;;;;;;;0.50;0.50;;;;;;;;;;4995830;28;20240;-80
2023/03/14 07:05:25;;;;;;;0.50;0.50;;;;;;;;;;4996628;28;20173;-80
2023/03/14 07:07:55;;;;;;;0.53;0.53;;;;;;;;;;4997600;28;20173;-80
2023/03/14 07:10:21;;;;;;;0.60;0.60;;;;;;;;;;4998776;28;20173;-80
2023/03/14 07:12:47;;;;;;;0.63;0.63;;;;;;;;;;4996918;28;20224;-81
2023/03/14 07:15:14;;;;;;;0.63;0.63;;;;;;;;;;4996422;28;20208;-83
2023/03/14 07:17:40;;;;;;;0.60;0.60;;;;;;;;;;4996761;28;20177;-81
2023/03/14 07:20:06;;;;;;;0.50;0.50;;;;;;;;;;4996906;28;20207;-80
2023/03/14 07:22:33;;;;;;;0.60;0.60;;;;;;;;;;4995619;28;20209;-80
2023/03/14 07:24:59;;;;;;;0.70;0.70;;;;;;;;;;4996322;28;20184;-81
2023/03/14 07:27:25;;;;;;;0.60;0.60;;;;;;;;;;4996243;28;20173;-82
2023/03/14 07:29:50;;;;;;;0.50;0.50;;;;;;;;;;4996021;28;20633;-81
2023/03/14 07:32:16;;;;;;;0.50;0.50;;;;;;;;;;4995717;28;20169;-82
2023/03/14 07:34:42;;;;;;;0.50;0.50;;;;;;;;;;4995696;28;20181;-82
2023/03/14 07:37:09;;;;;;;0.60;0.60;;;;;;;;;;4976888;28;20277;-82
2023/03/14 07:39:35;;;;;;;0.40;0.40;;;;;;;;;;4977693;28;20672;-84
2023/03/14 07:42:01;;;;;;;0.40;0.40;;;;;;;;;;4977604;28;20173;-84
2023/03/14 07:44:27;;;;;;;0.40;0.40;;;;;;;;;;4995979;28;20283;-84
2023/03/14 07:46:53;;;;;;;0.50;0.50;;;;;;;;;;4996993;28;20207;-84
2023/03/14 07:49:19;;;;;;;0.50;0.50;;;;;;;;;;4997141;28;20704;-84
2023/03/14 07:51:48;;;;;;;0.50;0.50;;;;;;;;;;4996371;28;20219;-84
2023/03/14 07:54:14;;;;;;;0.40;0.40;;;;;;;;;;4996386;28;20213;-85
2023/03/14 07:56:40;;;;;;;0.50;0.50;;;;;;;;;;4996318;28;20541;-83
2023/03/14 07:59:06;;;;;;;0.40;0.40;;;;;;;;;;4996882;28;20188;-84
2023/03/14 08:01:32;;;;;;;0.50;0.50;;;;;;;;;;4996467;28;20200;-84
2023/03/14 08:03:59;;;;;;;0.40;0.40;;;;;;;;;;4999456;28;20574;-83
2023/03/14 08:06:25;;;;;;;0.40;0.40;;;;;;;;;;5000928;28;20177;-84
2023/03/14 08:08:51;;;;;;;0.40;0.40;;;;;;;;;;5001740;28;20181;-88
2023/03/14 08:11:17;;;;;;;0.30;0.30;;;;;;;;;;5002210;28;20177;-84
2023/03/14 08:13:49;;;;;;;0.30;0.30;;;;;;;;;;5015431;28;20212;-83
2023/03/14 08:16:15;;;;;;;0.40;0.40;;;;;;;;;;5020191;28;20189;-85
2023/03/14 08:18:41;;;;;;;0.40;0.40;;;;;;;;;;5020179;28;20164;-85
2023/03/14 08:21:07;;;;;;;0.40;0.40;;;;;;;;;;5019762;28;20236;-83
2023/03/14 08:23:33;;;;;;;0.60;0.60;;;;;;;;;;5018931;28;20217;-83
2023/03/14 08:25:59;;;;;;;0.40;0.40;;;;;;;;;;5001077;28;20267;-82
2023/03/14 08:28:30;;;;;;;0.37;0.37;;;;;;;;;;4999883;28;20718;-85
2023/03/14 08:30:56;;;;;;;0.40;0.40;;;;;;;;;;4997327;28;20181;-83
2023/03/14 08:33:22;;;;;;;0.30;0.30;;;;;;;;;;4999081;28;20196;-83
2023/03/14 08:35:48;;;;;;;0.40;0.40;;;;;;;;;;4999521;28;20193;-82
2023/03/14 08:38:14;;;;;;;0.40;0.40;;;;;;;;;;5001772;28;20181;-83
2023/03/14 08:40:40;;;;;;;0.50;0.50;;;;;;;;;;5000412;28;20188;-83
2023/03/14 08:43:06;;;;;;;0.30;0.30;;;;;;;;;;4999394;28;20221;-83
2023/03/14 08:45:32;;;;;;;0.33;0.33;;;;;;;;;;4999705;28;20178;-83
2023/03/14 08:47:58;;;;;;;0.30;0.30;;;;;;;;;;5000187;28;20323;-83
2023/03/14 08:50:25;;;;;;;0.30;0.30;;;;;;;;;;4999911;28;20193;-85
2023/03/14 08:52:51;;;;;;;0.40;0.40;;;;;;;;;;5010387;28;20181;-82
2023/03/14 08:55:17;;;;;;;0.40;0.40;;;;;;;;;;5016985;28;20172;-85
2023/03/14 08:57:43;;;;;;;0.40;0.40;;;;;;;;;;5016941;28;20192;-82
2023/03/14 09:00:12;;;;;;;0.50;0.50;;;;;;;;;;5017073;28;20177;-82
2023/03/14 09:02:38;;;;;;;0.43;0.43;;;;;;;;;;5006789;28;20757;-81
2023/03/14 09:05:05;;;;;;;0.50;0.50;;;;;;;;;;4997648;28;20812;-81
2023/03/14 09:07:31;;;;;;;0.50;0.50;;;;;;;;;;4996800;28;20189;-80
2023/03/14 09:09:57;;;;;;;0.50;0.50;;;;;;;;;;4997328;28;20640;-81
2023/03/14 09:12:23;;;;;;;0.50;0.50;;;;;;;;;;4997084;28;20173;-81
2023/03/14 09:14:49;;;;;;;0.37;0.37;;;;;;;;;;4996611;28;20188;-81
2023/03/14 09:17:14;;;;;;;0.50;0.50;;;;;;;;;;4993369;28;20205;-81
2023/03/14 09:19:40;;;;;;;0.50;0.50;;;;;;;;;;4995016;28;20284;-82
2023/03/14 09:22:06;;;;;;;0.30;0.30;;;;;;;;;;4996232;28;20177;-82
2023/03/14 09:24:32;;;;;;;0.33;0.33;;;;;;;;;;4996262;28;20614;-83
2023/03/14 09:26:58;;;;;;;0.40;0.40;;;;;;;;;;4996851;28;20177;-82
2023/03/14 09:29:25;;;;;;;0.40;0.40;;;;;;;;;;4996291;28;20272;-81
2023/03/14 09:31:51;;;;;;;0.40;0.40;;;;;;;;;;4998499;28;20173;-82
2023/03/14 09:34:17;;;;;;;0.50;0.50;;;;;;;;;;5003173;28;20193;-80
2023/03/14 09:36:44;;;;;;;0.43;0.43;;;;;;;;;;5001059;28;20241;-79
2023/03/14 09:39:10;;;;;;;0.30;0.30;;;;;;;;;;4994204;28;20218;-82
2023/03/14 09:41:38;;;;;;;0.40;0.40;;;;;;;;;;5001147;28;20182;-83
2023/03/14 09:44:18;;;;;;;0.43;0.43;;;;;;;;;;4997130;28;20213;-85
2023/03/14 09:46:47;;;;;;;0.57;0.57;;;;;;;;;;4997797;28;20180;-79
2023/03/14 09:49:31;;;;;;;0.40;0.40;;;;;;;;;;4997126;28;20189;-81
2023/03/14 09:51:58;;;;;;;0.47;0.47;;;;;;;;;;4995634;28;20173;-80
2023/03/14 09:54:42;;;;;;;0.50;0.50;;;;;;;;;;4999756;28;20251;-81
2023/03/14 09:57:14;;;;;;;0.40;0.40;;;;;;;;;;5005349;28;20240;-82
2023/03/14 09:59:40;;;;;;;0.50;0.50;;;;;;;;;;5001788;28;20563;-82
2023/03/14 10:02:17;;;;;;;0.50;0.50;;;;;;;;;;4995202;28;20173;-84
2023/03/14 10:04:45;;;;;;;0.50;0.50;;;;;;;;;;4993440;28;20640;-82
2023/03/14 10:07:15;;;;;;;0.60;0.60;;;;;;;;;;4995116;28;20173;-83
2023/03/14 10:09:43;;;;;;;0.50;0.50;;;;;;;;;;4995301;28;20666;-84
2023/03/14 10:12:09;;;;;;;0.40;0.40;;;;;;;;;;4994501;28;20629;-82
2023/03/14 10:14:37;;;;;;;0.50;0.50;;;;;;;;;;4995714;28;20181;-82
2023/03/14 10:17:08;;;;;;;0.40;0.40;;;;;;;;;;4994350;28;20253;-83
2023/03/14 10:19:35;;;;;;;0.40;0.40;;;;;;;;;;4995496;28;20188;-85
2023/03/14 10:22:02;;;;;;;0.50;0.50;;;;;;;;;;4994041;28;20340;-82
2023/03/14 10:24:30;;;;;;;0.60;0.60;;;;;;;;;;4992373;28;20204;-84
2023/03/14 10:27:04;;;;;;;0.40;0.40;;;;;;;;;;4995454;28;20185;-81
2023/03/14 10:29:32;;;;;;;0.50;0.50;;;;;;;;;;4995922;28;20267;-84
2023/03/14 10:32:01;;;;;;;0.40;0.40;;;;;;;;;;4996889;28;20173;-83
2023/03/14 10:34:28;;;;;;;0.40;0.40;;;;;;;;;;4996042;28;20552;-85
2023/03/14 10:36:56;;;;;;;0.30;0.30;;;;;;;;;;4999075;28;20189;-83
2023/03/14 10:39:25;;;;;;;0.50;0.50;;;;;;;;;;4995948;28;20182;-83
2023/03/14 10:41:53;;;;;;;0.40;0.40;;;;;;;;;;4998280;28;20232;-83
2023/03/14 10:44:21;;;;;;;0.50;0.50;;;;;;;;;;4994446;28;20236;-82
2023/03/14 10:46:55;;;;;;;0.50;0.50;;;;;;;;;;4994111;28;20181;-80
2023/03/14 10:49:27;;;;;;;0.50;0.50;;;;;;;;;;4994153;28;20169;-83
2023/03/14 10:51:53;;;;;;;0.60;0.60;;;;;;;;;;4994581;28;20201;-80
2023/03/14 10:54:23;;;;;;;0.50;0.50;;;;;;;;;;4996516;28;20668;-81
2023/03/14 10:57:00;;;;;;;0.50;0.50;;;;;;;;;;4995603;28;20193;-83
2023/03/14 10:59:27;;;;;;;0.60;0.60;;;;;;;;;;4993829;28;20551;-80
2023/03/14 11:02:03;;;;;;;0.60;0.60;;;;;;;;;;4994107;28;20169;-80
2023/03/14 11:04:46;;;;;;;0.50;0.50;;;;;;;;;;4994779;28;20224;-81
2023/03/14 11:07:24;;;;;;;0.50;0.50;;;;;;;;;;4990856;28;20169;-80
2023/03/14 11:09:56;;;;;;;0.40;0.40;;;;;;;;;;4993868;28;20316;-82
2023/03/14 11:12:36;;;;;;;0.50;0.50;;;;;;;;;;4993937;28;20191;-82
2023/03/14 11:15:06;;;;;;;0.50;0.50;;;;;;;;;;4992232;28;20213;-82
2023/03/14 11:17:39;;;;;;;0.63;0.63;;;;;;;;;;4994859;28;20221;-84
2023/03/14 11:20:13;;;;;;;0.40;0.40;;;;;;;;;;4993332;28;20189;-83
2023/03/14 11:22:42;;;;;;;0.50;0.50;;;;;;;;;;4994006;28;20295;-82
2023/03/14 11:25:28;;;;;;;0.50;0.50;;;;;;;;;;4992487;28;20185;-81
2023/03/14 11:28:06;;;;;;;0.53;0.53;;;;;;;;;;4994075;28;20657;-84
2023/03/14 11:30:44;;;;;;;0.50;0.50;;;;;;;;;;4994294;28;20227;-82
2023/03/14 11:33:18;;;;;;;0.60;0.60;;;;;;;;;;4997137;28;20201;-82
2023/03/14 11:35:44;;;;;;;0.60;0.60;;;;;;;;;;4994526;28;20180;-82
2023/03/14 11:38:13;;;;;;;0.60;0.60;;;;;;;;;;4995713;28;20177;-81
2023/03/14 11:40:40;;;;;;;0.60;0.60;;;;;;;;;;4994686;28;20169;-82
2023/03/14 11:43:12;;;;;;;0.50;0.50;;;;;;;;;;4997947;28;20209;-82
2023/03/14 11:45:40;;;;;;;0.60;0.60;;;;;;;;;;4999566;28;20243;-82
2023/03/14 11:48:11;;;;;;;0.60;0.60;;;;;;;;;;4994619;28;20255;-81
2023/03/14 11:50:40;;;;;;;0.70;0.70;;;;;;;;;;4994010;28;20509;-80
2023/03/14 11:53:10;;;;;;;0.60;0.60;;;;;;;;;;4994619;28;20188;-81
2023/03/14 11:55:36;;;;;;;0.50;0.50;;;;;;;;;;4994595;28;20170;-81
2023/03/14 11:58:18;;;;;;;0.60;0.60;;;;;;;;;;4994370;28;20232;-81
2023/03/14 12:00:45;;;;;;;0.53;0.53;;;;;;;;;;4995270;28;20255;-81
2023/03/14 12:03:35;;;;;;;0.50;0.50;;;;;;;;;;4998154;28;20217;-82
2023/03/14 12:06:04;;;;;;;0.60;0.60;;;;;;;;;;4998881;28;20177;-80
2023/03/14 12:08:30;;;;;;;0.70;0.70;;;;;;;;;;4998870;28;20174;-83
2023/03/14 12:11:00;;;;;;;0.60;0.60;;;;;;;;;;4997980;28;20180;-82
2023/03/14 12:13:29;;;;;;;0.67;0.67;;;;;;;;;;4997190;28;20204;-81
2023/03/14 12:15:59;;;;;;;0.60;0.60;;;;;;;;;;4996073;28;20280;-82
2023/03/14 12:18:41;;;;;;;0.50;0.50;;;;;;;;;;4997386;28;20604;-82
2023/03/14 12:21:08;;;;;;;0.50;0.50;;;;;;;;;;4996204;28;20177;-81
2023/03/14 12:23:37;;;;;;;0.40;0.40;;;;;;;;;;4996687;28;20217;-81
2023/03/14 12:26:12;;;;;;;0.60;0.60;;;;;;;;;;4997368;28;20601;-82
2023/03/14 12:28:39;;;;;;;0.60;0.60;;;;;;;;;;4995248;28;20185;-81
2023/03/14 12:31:24;;;;;;;0.60;0.60;;;;;;;;;;4995832;28;20185;-81
2023/03/14 12:34:01;;;;;;;0.50;0.50;;;;;;;;;;4994893;28;20229;-82
2023/03/14 12:36:50;;;;;;;0.60;0.60;;;;;;;;;;4994801;28;20188;-82
2023/03/14 12:39:23;;;;;;;0.50;0.50;;;;;;;;;;4987935;28;20185;-82
2023/03/14 12:41:52;;;;;;;0.60;0.60;;;;;;;;;;4997819;28;20174;-82
2023/03/14 12:44:39;;;;;;;0.67;0.67;;;;;;;;;;4996895;28;20694;-83
2023/03/14 12:47:17;;;;;;;0.60;0.60;;;;;;;;;;4997703;28;20200;-82
2023/03/14 12:49:44;;;;;;;0.50;0.50;;;;;;;;;;4999678;28;20173;-83
2023/03/14 12:52:14;;;;;;;0.60;0.60;;;;;;;;;;5002424;28;20181;-83
2023/03/14 12:54:46;;;;;;;0.60;0.60;;;;;;;;;;5002899;28;20748;-83
2023/03/14 12:57:21;;;;;;;0.50;0.50;;;;;;;;;;5003115;28;20260;-83
2023/03/14 12:59:57;;;;;;;0.60;0.60;;;;;;;;;;5002692;28;20263;-83
2023/03/14 13:02:25;;;;;;;0.60;0.60;;;;;;;;;;4999681;28;20211;-82
2023/03/14 13:04:53;;;;;;;0.57;0.57;;;;;;;;;;4999375;28;20195;-83
2023/03/14 13:07:25;;;;;;;0.50;0.50;;;;;;;;;;5002001;28;20292;-83
2023/03/14 13:10:02;;;;;;;0.60;0.60;;;;;;;;;;5004245;28;20256;-82
2023/03/14 13:12:32;;;;;;;0.47;0.47;;;;;;;;;;5001023;28;20204;-82
2023/03/14 13:14:59;;;;;;;0.50;0.50;;;;;;;;;;5000777;28;20177;-85
2023/03/14 13:17:27;;;;;;;0.53;0.53;;;;;;;;;;5001088;28;20177;-84
2023/03/14 13:19:56;;;;;;;0.50;0.50;;;;;;;;;;5000018;28;20189;-85
2023/03/14 13:22:25;;;;;;;0.40;0.40;;;;;;;;;;4997538;28;20232;-83
2023/03/14 13:24:58;;;;;;;0.60;0.60;;;;;;;;;;5000523;28;20220;-84
2023/03/14 13:27:25;;;;;;;0.40;0.40;;;;;;;;;;5001687;28;20578;-84
2023/03/14 13:29:51;;;;;;;0.60;0.60;;;;;;;;;;5002575;28;20181;-81
2023/03/14 13:32:19;;;;;;;0.50;0.50;;;;;;;;;;4999489;28;20184;-83
2023/03/14 13:34:47;;;;;;;0.60;0.60;;;;;;;;;;5002079;28;20189;-83
2023/03/14 13:37:31;;;;;;;0.50;0.50;;;;;;;;;;5001438;28;20248;-85
2023/03/14 13:39:58;;;;;;;0.70;0.70;;;;;;;;;;5003456;28;20238;-83
2023/03/14 13:42:28;;;;;;;0.60;0.60;;;;;;;;;;5005995;28;20252;-83
2023/03/14 13:44:56;;;;;;;0.70;0.70;;;;;;;;;;5006974;28;20235;-83
2023/03/14 13:47:24;;;;;;;0.70;0.70;;;;;;;;;;5009749;28;20173;-83
2023/03/14 13:49:50;;;;;;;0.70;0.70;;;;;;;;;;5008966;28;20193;-83
2023/03/14 13:52:35;;;;;;;0.70;0.70;;;;;;;;;;5006612;28;20178;-82
2023/03/14 13:55:03;;;;;;;0.70;0.70;;;;;;;;;;5003677;28;20188;-82
2023/03/14 13:57:42;;;;;;;0.60;0.60;;;;;;;;;;5002722;28;20281;-81
2023/03/14 14:00:17;;;;;;;0.70;0.70;;;;;;;;;;5001979;28;20197;-81
2023/03/14 14:02:43;;;;;;;0.70;0.70;;;;;;;;;;5002019;28;20220;-80
2023/03/14 14:05:11;;;;;;;0.70;0.70;;;;;;;;;;5002754;28;20268;-83
2023/03/14 14:07:37;;;;;;;0.60;0.60;;;;;;;;;;4998859;28;20181;-83
2023/03/14 14:10:04;;;;;;;0.70;0.70;;;;;;;;;;5001054;28;20228;-82
2023/03/14 14:12:39;;;;;;;0.70;0.70;;;;;;;;;;4991398;28;20208;-81
2023/03/14 14:15:05;;;;;;;0.60;0.60;;;;;;;;;;5003610;28;20184;-82
2023/03/14 14:17:33;;;;;;;0.57;0.57;;;;;;;;;;5003273;28;20547;-82
2023/03/14 14:20:00;;;;;;;0.70;0.70;;;;;;;;;;5002172;28;20201;-80
2023/03/14 14:22:26;;;;;;;0.70;0.70;;;;;;;;;;5001593;28;20205;-84
2023/03/14 14:24:52;;;;;;;0.60;0.60;;;;;;;;;;5004238;28;20197;-82
2023/03/14 14:27:34;;;;;;;0.73;0.73;;;;;;;;;;5005220;28;20664;-82
2023/03/14 14:30:23;;;;;;;0.63;0.63;;;;;;;;;;5004404;28;20173;-82
2023/03/14 14:32:50;;;;;;;0.70;0.70;;;;;;;;;;5004598;28;20209;-83
2023/03/14 14:35:27;;;;;;;0.63;0.63;;;;;;;;;;5001656;28;20256;-82
2023/03/14 14:37:53;;;;;;;0.53;0.53;;;;;;;;;;5007725;28;20200;-83
2023/03/14 14:40:24;;;;;;;0.70;0.70;;;;;;;;;;5004929;28;20177;-82
2023/03/14 14:42:50;;;;;;;0.70;0.70;;;;;;;;;;5002015;28;20221;-83
2023/03/14 14:45:21;;;;;;;0.60;0.60;;;;;;;;;;5004375;28;20203;-82
2023/03/14 14:48:02;;;;;;;0.70;0.70;;;;;;;;;;5003125;28;20216;-81
2023/03/14 14:50:32;;;;;;;0.70;0.70;;;;;;;;;;5002481;28;20249;-81
2023/03/14 14:53:22;;;;;;;0.73;0.73;;;;;;;;;;5000238;28;20200;-81